Time;durP1;ratioP1;P1;durP2;ratioP2;P2;SDS_P1;SDS_P2;PMS_P1;PMS_P2;Temp;Humidity;BMP_temperature;BMP_pressure;BME280_temperature;BME280_humidity;BME280_pressure;Samples;Min_cycle;Max_cycle;Signal;HPM_P1;HPM_P2
2021/09/04 00:00:43;;;;;;;20.77;13.77;;;16.00;99.90;;;;;;8254298;28;20193;-84
2021/09/04 00:04:47;;;;;;;19.47;13.47;;;16.00;99.90;;;;;;8256081;28;20318;-82
2021/09/04 00:08:47;;;;;;;21.60;14.70;;;15.90;99.90;;;;;;8256767;28;20186;-87
2021/09/04 00:12:49;;;;;;;18.60;12.97;;;15.90;99.90;;;;;;8269299;28;20975;-80
2021/09/04 00:16:49;;;;;;;13.60;10.70;;;16.00;99.90;;;;;;8248713;28;20717;-78
2021/09/04 00:20:50;;;;;;;23.93;13.33;;;15.90;99.90;;;;;;8249147;28;20503;-81
2021/09/04 00:24:50;;;;;;;16.40;12.87;;;15.90;99.90;;;;;;8251572;28;20205;-79
2021/09/04 00:28:51;;;;;;;20.60;11.80;;;15.80;99.90;;;;;;8249238;28;20247;-80
2021/09/04 00:32:52;;;;;;;15.93;12.40;;;15.70;99.90;;;;;;8261880;28;20188;-84
2021/09/04 00:36:52;;;;;;;18.50;12.13;;;15.70;99.90;;;;;;8259138;28;21002;-78
2021/09/04 00:40:53;;;;;;;18.93;12.80;;;15.60;99.90;;;;;;8253200;28;20204;-82
2021/09/04 00:44:54;;;;;;;15.43;11.83;;;15.60;99.90;;;;;;8254743;28;20208;-83
2021/09/04 00:48:54;;;;;;;17.23;11.83;;;15.50;99.90;;;;;;8257234;28;20625;-78
2021/09/04 00:52:55;;;;;;;16.93;11.87;;;15.50;99.90;;;;;;8251194;28;20185;-78
2021/09/04 00:56:57;;;;;;;15.50;11.67;;;15.50;99.90;;;;;;8245401;28;20205;-81
2021/09/04 01:00:58;;;;;;;20.80;13.10;;;15.40;99.90;;;;;;8241687;28;20791;-83
2021/09/04 01:04:59;;;;;;;16.70;12.60;;;15.30;99.90;;;;;;8307953;23;21063;-81
2021/09/04 01:09:00;;;;;;;14.80;11.50;;;15.30;99.90;;;;;;8316811;28;20529;-80
2021/09/04 01:13:00;;;;;;;15.87;12.70;;;15.30;99.90;;;;;;8315841;28;20198;-80
2021/09/04 01:17:01;;;;;;;15.80;12.03;;;15.20;99.90;;;;;;8315973;28;20210;-79
2021/09/04 01:21:07;;;;;;;17.93;13.40;;;15.20;99.90;;;;;;8316751;28;21188;-79
2021/09/04 01:25:08;;;;;;;12.57;10.80;;;15.20;99.90;;;;;;8316405;28;20311;-83
2021/09/04 01:29:09;;;;;;;15.97;11.43;;;15.10;99.90;;;;;;8313637;28;20453;-82
2021/09/04 01:33:10;;;;;;;17.70;12.37;;;15.10;99.90;;;;;;8316145;28;20477;-80
2021/09/04 01:37:13;;;;;;;18.17;14.07;;;15.10;99.90;;;;;;8318424;28;20184;-84
2021/09/04 01:41:13;;;;;;;17.33;11.87;;;15.10;99.90;;;;;;8312820;28;20445;-78
2021/09/04 01:45:14;;;;;;;22.13;13.37;;;15.00;99.90;;;;;;8316495;28;20481;-80
2021/09/04 01:49:15;;;;;;;20.23;14.80;;;15.00;99.90;;;;;;8320280;28;20192;-80
2021/09/04 01:53:15;;;;;;;17.93;13.87;;;15.00;99.90;;;;;;8312839;28;20195;-78
2021/09/04 01:57:17;;;;;;;17.30;13.53;;;15.00;99.90;;;;;;8318906;28;20194;-79
2021/09/04 02:01:18;;;;;;;17.40;13.90;;;15.00;99.90;;;;;;8314486;28;20191;-83
2021/09/04 02:05:18;;;;;;;14.27;12.67;;;15.10;99.90;;;;;;8312143;28;20547;-81
2021/09/04 02:09:19;;;;;;;15.87;13.10;;;15.10;99.90;;;;;;8314738;28;20922;-79
2021/09/04 02:13:19;;;;;;;19.20;13.80;;;15.10;99.90;;;;;;8315647;28;20193;-82
2021/09/04 02:17:20;;;;;;;21.30;15.00;;;15.10;99.90;;;;;;8323437;28;20184;-84
2021/09/04 02:21:20;;;;;;;20.30;13.67;;;15.10;99.90;;;;;;8330274;28;20274;-78
2021/09/04 02:25:21;;;;;;;17.73;12.80;;;15.10;99.90;;;;;;8318077;28;20234;-80
2021/09/04 02:29:22;;;;;;;19.70;14.03;;;15.10;99.90;;;;;;8315039;28;20249;-79
2021/09/04 02:33:22;;;;;;;17.37;13.47;;;15.10;99.90;;;;;;8314189;28;20721;-81
2021/09/04 02:37:23;;;;;;;15.27;12.23;;;15.10;99.90;;;;;;8316280;28;20255;-83
2021/09/04 02:41:23;;;;;;;13.83;11.90;;;15.10;99.90;;;;;;8314182;28;21124;-82
2021/09/04 02:45:24;;;;;;;14.73;11.67;;;15.10;99.90;;;;;;8319451;28;20281;-85
2021/09/04 02:49:25;;;;;;;19.50;12.50;;;15.20;99.90;;;;;;8324174;28;20530;-79
2021/09/04 02:53:26;;;;;;;15.93;11.67;;;15.30;99.90;;;;;;8319383;28;20185;-80
2021/09/04 02:57:26;;;;;;;14.73;11.67;;;15.40;99.90;;;;;;8324876;28;20194;-77
2021/09/04 03:01:28;;;;;;;14.10;11.63;;;15.40;99.90;;;;;;8334259;28;20449;-82
2021/09/04 03:05:30;;;;;;;16.90;12.60;;;15.40;99.90;;;;;;8317319;28;20223;-85
2021/09/04 03:09:31;;;;;;;13.60;11.00;;;15.40;99.90;;;;;;8331596;28;20450;-78
2021/09/04 03:13:32;;;;;;;15.47;11.47;;;15.30;99.90;;;;;;8346401;28;20452;-78
2021/09/04 03:17:33;;;;;;;18.83;10.57;;;15.20;99.90;;;;;;8320255;28;20191;-79
2021/09/04 03:21:33;;;;;;;19.67;11.70;;;15.10;99.90;;;;;;8316791;28;20445;-77
2021/09/04 03:25:34;;;;;;;18.50;13.00;;;15.10;99.90;;;;;;8314945;28;20309;-83
2021/09/04 03:29:35;;;;;;;17.33;11.20;;;15.00;99.90;;;;;;8315243;28;20238;-79
2021/09/04 03:33:35;;;;;;;14.23;11.70;;;15.00;99.90;;;;;;8312115;28;20671;-82
2021/09/04 03:37:36;;;;;;;15.23;11.67;;;14.90;99.90;;;;;;8312542;28;20198;-83
2021/09/04 03:41:36;;;;;;;15.23;11.20;;;14.80;99.90;;;;;;8314577;28;20186;-80
2021/09/04 03:45:37;;;;;;;16.20;12.40;;;14.80;99.90;;;;;;8319170;28;20218;-83
2021/09/04 03:49:38;;;;;;;16.63;13.37;;;14.70;99.90;;;;;;8323173;28;20180;-83
2021/09/04 03:53:38;;;;;;;18.83;12.90;;;14.70;99.90;;;;;;8323034;28;20278;-77
2021/09/04 03:57:39;;;;;;;15.70;13.20;;;14.60;99.90;;;;;;8318671;28;20713;-80
2021/09/04 04:01:39;;;;;;;14.90;12.03;;;14.60;99.90;;;;;;8314456;28;20188;-79
2021/09/04 04:05:40;;;;;;;19.00;13.70;;;14.50;99.90;;;;;;8314735;28;20222;-82
2021/09/04 04:09:41;;;;;;;20.23;14.70;;;14.50;99.90;;;;;;8333141;28;20252;-81
2021/09/04 04:13:41;;;;;;;35.40;14.80;;;14.40;99.90;;;;;;8311431;28;20222;-79
2021/09/04 04:17:42;;;;;;;20.70;13.90;;;14.30;99.90;;;;;;8311071;28;20190;-84
2021/09/04 04:21:43;;;;;;;15.07;12.70;;;14.30;99.90;;;;;;8308111;28;20202;-79
2021/09/04 04:25:43;;;;;;;19.23;14.63;;;14.20;99.90;;;;;;8310776;28;20209;-79
2021/09/04 04:29:44;;;;;;;18.30;13.63;;;14.20;99.90;;;;;;8312416;28;20182;-83
2021/09/04 04:33:45;;;;;;;20.00;14.10;;;14.20;99.90;;;;;;8312194;28;20266;-79
2021/09/04 04:37:45;;;;;;;18.97;13.00;;;14.10;99.90;;;;;;8315763;28;20684;-78
2021/09/04 04:41:46;;;;;;;16.90;12.40;;;14.10;99.90;;;;;;8314754;28;20277;-80
2021/09/04 04:45:47;;;;;;;18.00;13.83;;;14.00;99.90;;;;;;8315657;28;21924;-83
2021/09/04 04:49:47;;;;;;;23.57;16.43;;;14.00;99.90;;;;;;8319414;28;20186;-78
2021/09/04 04:53:48;;;;;;;22.93;14.70;;;14.00;99.90;;;;;;8322343;28;20557;-79
2021/09/04 04:57:48;;;;;;;23.60;16.23;;;14.00;99.90;;;;;;8329738;28;20215;-83
2021/09/04 05:01:49;;;;;;;23.90;18.10;;;14.00;99.90;;;;;;8332110;28;20182;-84
2021/09/04 05:05:51;;;;;;;23.60;17.10;;;14.00;99.90;;;;;;8329969;28;20907;-83
2021/09/04 05:09:51;;;;;;;19.50;16.23;;;14.10;99.90;;;;;;8321974;28;20209;-78
2021/09/04 05:13:52;;;;;;;25.30;16.63;;;14.20;99.90;;;;;;8323151;28;20440;-78
2021/09/04 05:17:53;;;;;;;23.80;14.33;;;14.20;99.90;;;;;;8319085;28;20188;-82
2021/09/04 05:21:53;;;;;;;19.47;15.07;;;14.30;99.90;;;;;;8320018;28;20186;-79
2021/09/04 05:25:54;;;;;;;22.70;13.57;;;14.30;99.90;;;;;;8320482;28;20267;-80
2021/09/04 05:29:55;;;;;;;22.23;16.07;;;14.30;99.90;;;;;;8335729;28;20189;-79
2021/09/04 05:33:56;;;;;;;15.47;12.33;;;14.40;99.90;;;;;;8315193;28;20202;-79
2021/09/04 05:37:57;;;;;;;24.33;15.77;;;14.40;99.90;;;;;;8319296;28;20208;-78
2021/09/04 05:41:58;;;;;;;18.90;15.40;;;14.50;99.90;;;;;;8317937;28;21227;-82
2021/09/04 05:45:59;;;;;;;21.17;14.57;;;14.50;99.90;;;;;;8313355;28;20503;-80
2021/09/04 05:50:00;;;;;;;21.50;15.30;;;14.60;99.90;;;;;;8320623;28;20190;-78
2021/09/04 05:54:00;;;;;;;21.70;16.87;;;14.70;99.90;;;;;;8332154;28;20264;-80
2021/09/04 05:58:02;;;;;;;22.30;17.00;;;14.80;99.90;;;;;;8320126;28;20468;-85
2021/09/04 06:02:02;;;;;;;20.00;14.77;;;14.90;99.90;;;;;;8319688;28;20238;-84
2021/09/04 06:06:03;;;;;;;21.40;16.20;;;14.90;99.90;;;;;;8326821;28;20477;-80
2021/09/04 06:10:05;;;;;;;24.40;15.40;;;14.90;99.90;;;;;;8313420;28;20195;-80
2021/09/04 06:14:06;;;;;;;22.00;16.00;;;15.00;99.90;;;;;;8322860;28;20647;-81
2021/09/04 06:18:06;;;;;;;19.80;15.13;;;15.10;99.90;;;;;;8321607;28;20435;-79
2021/09/04 06:22:07;;;;;;;17.53;13.80;;;15.30;99.90;;;;;;8330840;28;20468;-84
2021/09/04 06:26:07;;;;;;;19.13;14.27;;;15.40;99.90;;;;;;8337957;28;20215;-83
2021/09/04 06:30:08;;;;;;;19.00;14.47;;;15.50;99.90;;;;;;8335296;28;20207;-84
2021/09/04 06:34:09;;;;;;;29.43;16.67;;;15.60;99.90;;;;;;8340152;28;20683;-83
2021/09/04 06:38:10;;;;;;;21.60;15.33;;;15.70;99.90;;;;;;8346561;28;20447;-84
2021/09/04 06:42:10;;;;;;;21.83;16.70;;;15.80;99.90;;;;;;8338492;28;20184;-83
2021/09/04 06:46:11;;;;;;;21.70;18.00;;;16.00;99.90;;;;;;8343707;28;20706;-83
2021/09/04 06:50:12;;;;;;;23.60;18.00;;;16.20;99.90;;;;;;8336383;28;20197;-83
2021/09/04 06:54:12;;;;;;;19.43;15.53;;;16.30;99.90;;;;;;8341088;28;20191;-82
2021/09/04 06:58:13;;;;;;;21.00;16.53;;;16.40;99.90;;;;;;8335902;28;20185;-82
2021/09/04 07:02:13;;;;;;;20.50;16.03;;;16.50;99.90;;;;;;8336899;28;20231;-83
2021/09/04 07:06:14;;;;;;;23.33;15.40;;;16.70;99.90;;;;;;8350580;28;20222;-82
2021/09/04 07:10:15;;;;;;;18.30;13.83;;;16.90;99.90;;;;;;8338166;28;20212;-84
2021/09/04 07:14:15;;;;;;;20.70;14.73;;;17.10;99.90;;;;;;8342591;28;20231;-83
2021/09/04 07:18:16;;;;;;;21.30;16.47;;;17.30;99.90;;;;;;8341053;28;20190;-84
2021/09/04 07:22:17;;;;;;;15.20;13.10;;;17.60;99.90;;;;;;8334513;28;20197;-83
2021/09/04 07:26:17;;;;;;;19.63;14.53;;;17.90;99.90;;;;;;8336874;28;20207;-81
2021/09/04 07:30:23;;;;;;;16.00;13.07;;;18.20;99.90;;;;;;8327890;28;20187;-80
2021/09/04 07:34:24;;;;;;;24.80;14.23;;;18.40;99.90;;;;;;8336709;28;20305;-82
2021/09/04 07:38:25;;;;;;;19.00;13.93;;;18.70;99.90;;;;;;8334682;28;20454;-84
2021/09/04 07:42:25;;;;;;;18.43;15.17;;;18.90;99.90;;;;;;8330244;28;20655;-80
2021/09/04 07:46:26;;;;;;;17.93;13.90;;;19.10;99.90;;;;;;8322165;28;20286;-79
2021/09/04 07:50:27;;;;;;;17.37;13.57;;;19.20;99.90;;;;;;8324515;28;20621;-79
2021/09/04 07:54:27;;;;;;;17.87;14.17;;;19.40;99.90;;;;;;8321104;28;20176;-80
2021/09/04 07:58:28;;;;;;;17.90;11.80;;;19.60;99.90;;;;;;8328502;28;20632;-80
2021/09/04 08:02:29;;;;;;;15.50;12.17;;;19.80;99.90;;;;;;8320036;28;20315;-80
2021/09/04 08:06:29;;;;;;;15.47;11.80;;;20.00;99.90;;;;;;8327763;28;20250;-80
2021/09/04 08:10:30;;;;;;;19.50;12.73;;;20.20;99.90;;;;;;8334137;28;20188;-79
2021/09/04 08:14:31;;;;;;;17.93;12.57;;;20.30;99.60;;;;;;8331911;28;20184;-81
2021/09/04 08:18:31;;;;;;;16.23;11.30;;;20.50;99.20;;;;;;8333955;28;20186;-78
2021/09/04 08:22:32;;;;;;;15.10;12.80;;;20.70;99.10;;;;;;8329369;28;20188;-80
2021/09/04 08:26:33;;;;;;;22.80;14.27;;;20.90;99.10;;;;;;8331581;28;20702;-81
2021/09/04 08:30:34;;;;;;;17.80;13.43;;;21.10;99.10;;;;;;8338998;28;20188;-81
2021/09/04 08:34:35;;;;;;;17.80;12.43;;;21.30;98.80;;;;;;8331306;28;20197;-82
2021/09/04 08:38:36;;;;;;;16.30;12.87;;;21.50;98.40;;;;;;8326795;28;20494;-80
2021/09/04 08:42:37;;;;;;;19.93;14.10;;;21.70;97.90;;;;;;8332788;28;20198;-81
2021/09/04 08:46:38;;;;;;;20.17;13.97;;;21.90;97.80;;;;;;8327941;28;20617;-80
2021/09/04 08:50:40;;;;;;;17.70;12.53;;;22.20;97.50;;;;;;8334107;28;20912;-83
2021/09/04 08:54:40;;;;;;;41.23;20.93;;;22.40;97.30;;;;;;8329048;28;20446;-85
2021/09/04 08:58:41;;;;;;;17.10;11.70;;;22.80;96.90;;;;;;8328529;28;20450;-82
2021/09/04 09:02:44;;;;;;;21.13;12.27;;;23.00;96.60;;;;;;8326495;28;20231;-82
2021/09/04 09:06:46;;;;;;;16.47;13.10;;;23.50;96.20;;;;;;8327783;28;20212;-80
2021/09/04 09:10:47;;;;;;;17.20;12.07;;;23.70;95.40;;;;;;8332820;28;20417;-81
2021/09/04 09:14:57;;;;;;;15.47;12.60;;;23.80;94.90;;;;;;8344068;28;21068;-80
2021/09/04 09:19:05;;;;;;;12.17;10.53;;;24.10;94.30;;;;;;8321559;28;20195;-76
2021/09/04 09:23:16;;;;;;;17.83;11.93;;;24.40;93.80;;;;;;8326332;28;20554;-79
2021/09/04 09:27:16;;;;;;;20.73;13.00;;;24.70;93.70;;;;;;8317227;28;20456;-78
2021/09/04 09:31:17;;;;;;;14.60;11.00;;;24.90;93.20;;;;;;8322856;28;20450;-78
2021/09/04 09:35:18;;;;;;;13.10;10.73;;;25.00;93.30;;;;;;8315602;28;20220;-76
2021/09/04 09:39:23;;;;;;;17.50;10.80;;;25.50;92.90;;;;;;8324645;28;20435;-78
2021/09/04 09:43:32;;;;;;;14.90;11.97;;;26.10;92.20;;;;;;8316110;28;20188;-80
2021/09/04 09:47:33;;;;;;;11.90;10.60;;;26.50;91.50;;;;;;8308005;28;20447;-78
2021/09/04 09:51:33;;;;;;;13.13;10.37;;;26.80;90.50;;;;;;8308886;28;20537;-79
2021/09/04 09:55:35;;;;;;;16.70;10.77;;;27.20;89.50;;;;;;8309494;28;20191;-78
2021/09/04 09:59:37;;;;;;;11.23;8.87;;;27.50;88.80;;;;;;8311816;28;20215;-78
2021/09/04 10:03:39;;;;;;;10.43;9.13;;;27.90;88.50;;;;;;8306841;28;20474;-79
2021/09/04 10:07:41;;;;;;;12.60;8.53;;;28.80;85.90;;;;;;8310022;28;20572;-78
2021/09/04 10:11:42;;;;;;;9.97;8.10;;;29.50;84.00;;;;;;8310897;28;20465;-78
2021/09/04 10:15:48;;;;;;;9.60;8.60;;;30.00;81.70;;;;;;8303716;28;20250;-78
2021/09/04 10:19:49;;;;;;;10.90;8.43;;;30.70;78.50;;;;;;8308496;28;20176;-77
2021/09/04 10:23:53;;;;;;;8.93;8.00;;;30.90;76.40;;;;;;8304844;28;20216;-77
2021/09/04 10:27:56;;;;;;;8.00;7.20;;;31.10;75.50;;;;;;8302830;28;20195;-77
2021/09/04 10:32:03;;;;;;;10.53;8.53;;;31.20;75.10;;;;;;8304257;28;20202;-79
2021/09/04 10:36:04;;;;;;;8.80;8.00;;;31.40;74.50;;;;;;8302096;28;20199;-78
2021/09/04 10:40:07;;;;;;;8.17;7.27;;;31.60;72.50;;;;;;8298415;28;21404;-75
2021/09/04 10:44:08;;;;;;;9.10;8.00;;;31.70;72.60;;;;;;8302576;28;20228;-77
2021/09/04 10:48:22;;;;;;;10.50;8.60;;;31.40;72.60;;;;;;8305121;28;20200;-78
2021/09/04 10:52:46;;;;;;;10.67;7.40;;;31.30;72.80;;;;;;8306679;28;20188;-78
2021/09/04 11:13:13;;;;;;;8.33;7.63;;;29.70;74.30;;;;;;8414009;28;20648;-76
2021/09/04 11:17:18;;;;;;;9.73;8.63;;;31.10;71.90;;;;;;8373482;28;20798;-76
2021/09/04 11:21:20;;;;;;;13.43;8.70;;;31.20;70.20;;;;;;8377543;28;20217;-76
2021/09/04 11:25:23;;;;;;;12.30;9.27;;;31.00;69.50;;;;;;8373874;28;20277;-80
2021/09/04 11:29:25;;;;;;;10.00;7.93;;;30.70;70.30;;;;;;8378903;28;20190;-75
2021/09/04 11:33:27;;;;;;;14.60;10.67;;;30.60;70.30;;;;;;8387903;28;20940;-82
2021/09/04 11:37:32;;;;;;;14.83;9.63;;;30.70;69.90;;;;;;8389715;28;20471;-79
2021/09/04 11:41:44;;;;;;;12.73;11.43;;;30.90;70.50;;;;;;8399137;28;21005;-80
2021/09/04 11:45:45;;;;;;;16.73;11.27;;;30.70;68.80;;;;;;8385701;28;20496;-82
2021/09/04 11:50:07;;;;;;;18.63;12.60;;;30.40;69.40;;;;;;8391913;28;20444;-78
2021/09/04 11:54:08;;;;;;;17.93;10.87;;;30.30;69.30;;;;;;8388086;28;20441;-76
2021/09/04 11:58:13;;;;;;;16.03;11.37;;;30.40;69.10;;;;;;8384985;28;21059;-79
2021/09/04 12:02:14;;;;;;;11.63;9.83;;;30.40;68.40;;;;;;8382476;28;20218;-78
2021/09/04 12:06:15;;;;;;;9.93;8.93;;;30.40;68.60;;;;;;8378428;28;20487;-81
2021/09/04 12:10:24;;;;;;;14.07;9.60;;;30.60;68.00;;;;;;8397496;28;20482;-79
2021/09/04 12:14:25;;;;;;;13.60;8.50;;;30.90;67.60;;;;;;8392021;28;20210;-79
2021/09/04 12:18:38;;;;;;;14.77;9.80;;;31.00;67.10;;;;;;8406600;28;20503;-79
2021/09/04 12:22:39;;;;;;;16.20;9.33;;;30.90;66.60;;;;;;8387622;28;20562;-78
2021/09/04 12:26:51;;;;;;;11.43;8.90;;;31.10;66.10;;;;;;8386786;28;20439;-80
2021/09/04 12:31:07;;;;;;;13.50;9.03;;;31.30;64.60;;;;;;8392118;28;20182;-79
2021/09/04 12:35:07;;;;;;;9.23;7.90;;;31.70;64.30;;;;;;8392708;28;20463;-78
2021/09/04 12:39:21;;;;;;;9.60;7.67;;;32.00;63.70;;;;;;8397441;28;20553;-79
2021/09/04 12:43:22;;;;;;;7.73;6.53;;;31.90;63.30;;;;;;8388595;28;20187;-80
2021/09/04 12:47:42;;;;;;;7.97;7.10;;;31.80;62.30;;;;;;8392342;28;20441;-80
2021/09/04 12:51:44;;;;;;;8.37;7.57;;;31.50;62.70;;;;;;8400554;28;20194;-78
2021/09/04 12:55:49;;;;;;;9.40;7.57;;;31.70;62.70;;;;;;8395335;28;20533;-77
2021/09/04 12:59:59;;;;;;;10.37;8.00;;;31.60;62.00;;;;;;8397453;28;20486;-79
2021/09/04 13:04:02;;;;;;;10.40;8.03;;;31.30;62.90;;;;;;8394284;28;20449;-74
2021/09/04 13:08:03;;;;;;;12.00;8.17;;;31.00;62.00;;;;;;8403100;28;20498;-79
2021/09/04 13:12:04;;;;;;;12.67;7.50;;;31.00;62.90;;;;;;8397390;28;20966;-71
2021/09/04 13:16:05;;;;;;;14.83;8.90;;;31.10;62.50;;;;;;8377784;28;20486;-78
2021/09/04 13:20:07;;;;;;;9.60;8.63;;;31.40;62.20;;;;;;8389979;28;20305;-79
2021/09/04 13:24:08;;;;;;;12.03;9.00;;;31.50;60.80;;;;;;8391714;28;20444;-77
2021/09/04 13:28:08;;;;;;;9.50;8.00;;;31.50;60.30;;;;;;8378544;28;20889;-78
2021/09/04 13:32:09;;;;;;;10.07;8.47;;;31.40;61.00;;;;;;8399326;28;20256;-79
2021/09/04 13:36:10;;;;;;;11.60;8.93;;;31.20;60.90;;;;;;8384414;28;20331;-76
2021/09/04 13:40:10;;;;;;;8.87;7.60;;;31.00;60.80;;;;;;8403488;28;20297;-78
2021/09/04 13:44:11;;;;;;;9.80;8.57;;;31.00;61.70;;;;;;3533858;28;10002141;-76
2021/09/04 13:48:12;;;;;;;11.63;8.30;;;31.00;61.10;;;;;;8287644;28;20224;-81
2021/09/04 13:52:13;;;;;;;9.20;7.40;;;31.30;61.30;;;;;;8297790;28;20199;-80
2021/09/04 13:56:13;;;;;;;10.67;7.53;;;31.70;60.60;;;;;;8303724;28;20192;-80
2021/09/04 14:00:16;;;;;;;9.43;8.43;;;31.90;61.00;;;;;;8300315;28;20669;-80
2021/09/04 14:04:16;;;;;;;23.50;7.43;;;32.20;60.00;;;;;;8297249;28;20504;-88
2021/09/04 14:08:17;;;;;;;10.20;8.43;;;32.50;60.00;;;;;;8308068;28;20451;-79
2021/09/04 14:12:18;;;;;;;10.10;8.13;;;32.40;58.60;;;;;;8324110;28;20662;-77
2021/09/04 14:16:19;;;;;;;9.20;6.70;;;32.20;58.90;;;;;;8281960;28;20454;-78
2021/09/04 14:20:19;;;;;;;9.17;7.33;;;32.00;59.60;;;;;;8286412;28;20228;-78
2021/09/04 14:24:20;;;;;;;9.80;7.80;;;32.00;59.00;;;;;;8283496;28;20510;-77
2021/09/04 14:28:21;;;;;;;10.10;7.67;;;31.70;59.00;;;;;;8294532;28;20227;-77
2021/09/04 14:32:23;;;;;;;11.10;8.90;;;31.20;58.60;;;;;;8277414;28;20202;-76
2021/09/04 14:36:24;;;;;;;9.07;7.77;;;30.90;59.60;;;;;;8268213;28;20447;-77
2021/09/04 14:40:25;;;;;;;8.20;7.40;;;30.90;60.00;;;;;;8285273;28;20890;-77
2021/09/04 14:44:25;;;;;;;8.90;7.13;;;30.90;59.80;;;;;;8283497;28;20199;-78
2021/09/04 14:48:26;;;;;;;11.00;7.40;;;30.90;60.70;;;;;;8289515;28;20435;-79
2021/09/04 14:52:27;;;;;;;9.10;8.07;;;31.00;59.90;;;;;;8287503;28;20180;-80
2021/09/04 14:56:27;;;;;;;12.37;8.90;;;31.10;59.50;;;;;;8284637;28;20222;-82
2021/09/04 15:00:30;;;;;;;8.33;7.53;;;31.00;59.40;;;;;;8279096;28;20247;-84
2021/09/04 15:04:31;;;;;;;8.90;7.40;;;30.90;59.40;;;;;;8294133;28;20503;-82
2021/09/04 15:08:32;;;;;;;7.83;7.03;;;30.90;59.80;;;;;;8304492;28;20443;-81
2021/09/04 15:12:32;;;;;;;13.50;8.63;;;31.00;59.40;;;;;;8282702;28;20223;-75
2021/09/04 15:16:33;;;;;;;7.60;6.90;;;31.10;58.20;;;;;;8280171;28;20192;-80
2021/09/04 15:20:33;;;;;;;11.10;9.00;;;31.00;59.10;;;;;;8271975;28;20639;-81
2021/09/04 15:24:34;;;;;;;9.33;7.50;;;30.90;59.20;;;;;;8285430;28;20644;-81
2021/09/04 15:28:35;;;;;;;8.80;7.37;;;30.90;59.00;;;;;;8289640;28;20181;-81
2021/09/04 15:32:35;;;;;;;9.77;8.10;;;30.80;59.10;;;;;;8273041;28;20243;-81
2021/09/04 15:36:36;;;;;;;10.70;7.87;;;30.60;58.90;;;;;;8293414;28;20180;-79
2021/09/04 15:40:37;;;;;;;10.17;8.60;;;30.60;59.50;;;;;;8295319;28;20220;-80
2021/09/04 15:44:37;;;;;;;9.67;8.73;;;30.60;59.60;;;;;;8282975;28;20682;-80
2021/09/04 15:48:40;;;;;;;10.33;8.60;;;30.60;60.50;;;;;;8311411;28;20247;-82
2021/09/04 15:52:40;;;;;;;8.23;7.03;;;30.60;59.20;;;;;;8295557;28;20180;-81
2021/09/04 15:56:41;;;;;;;15.90;8.33;;;30.50;59.80;;;;;;8295318;28;20450;-81
2021/09/04 16:00:41;;;;;;;10.30;7.80;;;30.40;58.30;;;;;;8293845;28;20204;-81
2021/09/04 16:04:42;;;;;;;11.63;8.70;;;30.20;59.80;;;;;;8292925;28;20188;-81
2021/09/04 16:08:43;;;;;;;13.43;11.53;;;30.20;59.50;;;;;;8299645;28;20215;-81
2021/09/04 16:12:44;;;;;;;13.93;8.93;;;30.20;59.90;;;;;;8281490;28;20717;-81
2021/09/04 16:16:45;;;;;;;12.63;9.70;;;30.20;60.30;;;;;;8314098;28;20192;-81
2021/09/04 16:20:45;;;;;;;11.53;9.80;;;30.10;60.20;;;;;;8287404;28;20220;-75
2021/09/04 16:24:47;;;;;;;19.50;11.07;;;30.00;62.50;;;;;;8292480;28;20199;-82
2021/09/04 16:28:47;;;;;;;18.97;13.63;;;29.70;65.60;;;;;;8286449;28;20229;-82
2021/09/04 16:32:48;;;;;;;17.03;13.43;;;29.40;66.80;;;;;;8277673;28;20470;-77
2021/09/04 16:36:49;;;;;;;22.63;13.83;;;29.00;68.10;;;;;;8310568;28;20227;-83
2021/09/04 16:40:50;;;;;;;21.40;13.53;;;28.70;69.00;;;;;;8299998;28;20212;-79
2021/09/04 16:44:51;;;;;;;20.50;14.37;;;28.40;69.80;;;;;;8265116;28;20193;-80
2021/09/04 16:48:52;;;;;;;24.00;13.37;;;28.00;70.50;;;;;;8286590;28;20435;-80
2021/09/04 16:52:52;;;;;;;23.10;13.23;;;27.60;71.60;;;;;;8290055;28;20270;-83
2021/09/04 16:56:53;;;;;;;22.03;14.70;;;27.30;72.30;;;;;;8289106;28;20319;-80
2021/09/04 17:00:54;;;;;;;17.70;14.70;;;27.00;73.80;;;;;;8292882;28;20244;-81
2021/09/04 17:04:55;;;;;;;21.73;14.80;;;26.70;74.90;;;;;;8287305;28;20196;-81
2021/09/04 17:08:55;;;;;;;24.47;17.60;;;26.50;75.80;;;;;;8274993;28;20446;-81
2021/09/04 17:12:56;;;;;;;23.23;15.50;;;26.30;76.10;;;;;;8284605;28;20224;-81
2021/09/04 17:16:57;;;;;;;25.13;16.57;;;26.10;76.60;;;;;;8289406;28;20177;-81
2021/09/04 17:20:59;;;;;;;22.37;16.20;;;26.00;77.40;;;;;;8289974;28;20301;-81
2021/09/04 17:24:59;;;;;;;24.60;17.33;;;25.80;78.10;;;;;;8272280;28;20189;-82
2021/09/04 17:29:00;;;;;;;22.80;15.80;;;25.70;79.70;;;;;;8291266;28;20448;-85
2021/09/04 17:33:01;;;;;;;19.60;15.40;;;25.50;80.60;;;;;;8306850;28;20315;-81
2021/09/04 17:37:01;;;;;;;26.50;14.70;;;25.20;80.60;;;;;;8278388;28;20582;-83
2021/09/04 17:41:03;;;;;;;22.57;13.20;;;25.00;81.50;;;;;;8265172;28;20212;-77
2021/09/04 17:45:04;;;;;;;19.00;15.40;;;24.90;82.40;;;;;;8292592;28;20185;-80
2021/09/04 17:49:05;;;;;;;26.00;14.90;;;24.70;84.50;;;;;;8263277;28;20880;-77
2021/09/04 17:53:07;;;;;;;20.63;14.50;;;24.50;84.80;;;;;;8281784;28;20530;-78
2021/09/04 17:57:08;;;;;;;22.60;13.50;;;24.30;86.90;;;;;;8267592;28;20441;-78
2021/09/04 18:01:10;;;;;;;23.33;13.67;;;24.10;87.50;;;;;;8291112;28;20569;-78
2021/09/04 18:05:12;;;;;;;20.80;14.67;;;23.90;87.60;;;;;;8284215;28;20230;-79
2021/09/04 18:09:13;;;;;;;18.63;13.93;;;23.70;88.40;;;;;;8286124;28;20559;-79
2021/09/04 18:13:13;;;;;;;27.53;17.60;;;23.50;88.30;;;;;;8301069;28;20418;-79
2021/09/04 18:17:14;;;;;;;32.97;23.00;;;23.30;88.40;;;;;;8286323;28;20235;-77
2021/09/04 18:21:15;;;;;;;32.00;20.80;;;23.20;89.10;;;;;;8293975;28;20212;-78
2021/09/04 18:25:16;;;;;;;25.60;18.20;;;23.10;90.00;;;;;;8274516;28;20184;-79
2021/09/04 18:29:17;;;;;;;31.40;19.50;;;23.00;90.70;;;;;;8293241;28;20420;-78
2021/09/04 18:33:17;;;;;;;30.73;19.90;;;22.80;91.20;;;;;;8283588;28;20181;-78
2021/09/04 18:37:18;;;;;;;30.97;20.70;;;22.70;91.40;;;;;;8281660;28;20456;-78
2021/09/04 18:41:19;;;;;;;40.37;24.57;;;22.60;91.70;;;;;;8281390;28;20235;-78
2021/09/04 18:45:19;;;;;;;29.50;19.53;;;22.50;92.10;;;;;;8289941;28;20191;-79
2021/09/04 18:49:20;;;;;;;35.63;24.00;;;22.40;92.40;;;;;;8288203;28;20575;-78
2021/09/04 18:53:20;;;;;;;34.70;22.67;;;22.30;92.60;;;;;;8280642;28;20211;-79
2021/09/04 18:57:21;;;;;;;34.53;23.20;;;22.20;93.10;;;;;;8297610;28;20242;-79
2021/09/04 19:01:22;;;;;;;36.67;24.13;;;22.10;93.50;;;;;;8301065;28;20298;-80
2021/09/04 19:05:23;;;;;;;33.00;23.00;;;21.90;93.80;;;;;;8294950;28;20225;-80
2021/09/04 19:09:24;;;;;;;40.23;23.83;;;21.80;94.30;;;;;;8292337;28;21709;-80
2021/09/04 19:13:25;;;;;;;39.57;25.90;;;21.70;94.80;;;;;;8289135;28;20438;-80
2021/09/04 19:17:25;;;;;;;46.83;28.40;;;21.60;95.10;;;;;;8285143;28;20532;-80
2021/09/04 19:21:27;;;;;;;55.07;28.00;;;21.50;95.50;;;;;;8287617;28;20227;-79
2021/09/04 19:25:28;;;;;;;47.13;29.60;;;21.40;95.80;;;;;;8290818;28;20278;-80
2021/09/04 19:29:29;;;;;;;46.67;28.63;;;21.30;96.20;;;;;;8279028;28;20445;-79
2021/09/04 19:33:33;;;;;;;54.20;30.17;;;21.20;96.50;;;;;;8289162;28;20445;-79
2021/09/04 19:37:34;;;;;;;51.13;29.73;;;21.10;96.90;;;;;;8278323;28;20183;-79
2021/09/04 19:41:35;;;;;;;50.17;29.83;;;21.00;97.30;;;;;;8301671;28;20466;-80
2021/09/04 19:45:35;;;;;;;59.70;30.57;;;20.90;97.50;;;;;;8315360;28;20439;-80
2021/09/04 19:49:36;;;;;;;58.03;26.80;;;20.80;97.90;;;;;;8310770;28;20192;-78
2021/09/04 19:53:37;;;;;;;56.23;28.00;;;20.80;98.20;;;;;;8283659;28;20229;-79
2021/09/04 19:57:37;;;;;;;44.33;27.87;;;20.70;98.40;;;;;;8314410;28;20170;-79
2021/09/04 20:01:38;;;;;;;53.83;30.93;;;20.60;98.70;;;;;;8311977;28;20989;-77
2021/09/04 20:05:39;;;;;;;48.80;29.23;;;20.50;99.00;;;;;;8314447;28;20177;-79
2021/09/04 20:09:39;;;;;;;63.03;30.40;;;20.40;99.30;;;;;;8279158;28;20232;-79
2021/09/04 20:13:40;;;;;;;65.13;34.33;;;20.40;99.60;;;;;;8297892;28;20188;-79
2021/09/04 20:17:42;;;;;;;72.07;33.50;;;20.30;99.80;;;;;;8296103;28;20185;-79
2021/09/04 20:21:43;;;;;;;57.43;32.30;;;20.20;99.90;;;;;;8298411;28;20208;-79
2021/09/04 20:25:44;;;;;;;59.53;29.70;;;20.10;99.90;;;;;;8283781;28;20446;-78
2021/09/04 20:29:44;;;;;;;59.67;31.00;;;20.20;99.90;;;;;;8299373;28;20227;-78
2021/09/04 20:33:45;;;;;;;73.63;35.13;;;20.10;99.90;;;;;;8280866;28;20619;-79
2021/09/04 20:41:58;;;;;;;60.13;31.53;;;20.00;99.90;;;;;;8298707;28;20328;-80
2021/09/04 20:45:59;;;;;;;55.80;31.77;;;19.90;99.90;;;;;;8298744;28;20433;-80
2021/09/04 20:50:00;;;;;;;66.53;33.37;;;19.90;99.90;;;;;;8271473;28;20188;-80